createdAt,value
2023-02-17T00:01:33.206Z,19.50
2023-02-17T00:04:00.357Z,20.85
2023-02-17T00:06:30.609Z,21.55
2023-02-17T00:08:58.179Z,18.65
2023-02-17T00:11:25.367Z,20.52
2023-02-17T00:13:55.244Z,21.33
2023-02-17T00:16:25.471Z,21.20
2023-02-17T00:18:56.007Z,21.25
2023-02-17T00:21:25.653Z,20.55
2023-02-17T00:23:53.509Z,21.38
2023-02-17T00:26:21.548Z,21.75
2023-02-17T00:28:49.623Z,22.48
2023-02-17T00:31:22.680Z,22.90
2023-02-17T00:33:55.498Z,22.52
2023-02-17T00:36:22.508Z,22.27
2023-02-17T00:38:49.661Z,22.17
2023-02-17T00:41:18.195Z,21.02
2023-02-17T00:43:46.874Z,20.63
2023-02-17T00:46:17.908Z,22.75
2023-02-17T00:48:47.731Z,22.30
2023-02-17T00:51:15.995Z,22.98
2023-02-17T00:53:43.445Z,21.85
2023-02-17T00:56:10.847Z,22.67
2023-02-17T00:58:38.638Z,21.10
2023-02-17T01:01:05.797Z,21.67
2023-02-17T01:03:32.705Z,20.65
2023-02-17T01:06:00.051Z,22.90
2023-02-17T01:08:26.977Z,21.73
2023-02-17T01:10:54.131Z,22.00
2023-02-17T01:13:21.473Z,20.88
2023-02-17T01:15:52.299Z,20.90
2023-02-17T01:18:23.683Z,21.63
2023-02-17T01:20:52.040Z,21.40
2023-02-17T01:23:19.517Z,21.42
2023-02-17T01:25:47.760Z,20.27
2023-02-17T01:28:20.141Z,20.83
2023-02-17T01:30:48.324Z,20.40
2023-02-17T01:33:15.716Z,21.85
2023-02-17T01:35:42.770Z,22.30
2023-02-17T01:38:09.727Z,22.13
2023-02-17T01:40:36.629Z,22.20
2023-02-17T01:43:03.673Z,20.42
2023-02-17T01:45:37.838Z,19.98
2023-02-17T01:48:34.072Z,21.70
2023-02-17T01:51:08.366Z,21.63
2023-02-17T01:53:45.550Z,22.52
2023-02-17T01:56:14.147Z,21.80
2023-02-17T01:58:47.197Z,21.08
2023-02-17T02:01:14.310Z,21.30
2023-02-17T02:03:42.366Z,22.52
2023-02-17T02:06:16.923Z,20.98
2023-02-17T02:09:07.549Z,21.55
2023-02-17T02:11:35.609Z,22.13
2023-02-17T02:14:06.673Z,22.63
2023-02-17T02:16:47.490Z,20.98
2023-02-17T02:19:39.546Z,20.83
2023-02-17T02:23:07.563Z,22.63
2023-02-17T02:26:01.740Z,20.85
2023-02-17T02:28:47.691Z,21.98
2023-02-17T02:31:45.195Z,21.98
2023-02-17T02:37:23.881Z,20.35
2023-02-17T02:39:54.159Z,20.48
2023-02-17T02:42:24.394Z,20.80
2023-02-17T02:44:51.433Z,20.63
2023-02-17T02:47:46.599Z,21.33
2023-02-17T02:50:34.168Z,21.10
2023-02-17T02:53:22.590Z,21.75
2023-02-17T02:56:05.534Z,22.25
2023-02-17T02:59:10.174Z,22.35
2023-02-17T03:02:08.455Z,22.30
2023-02-17T03:07:25.062Z,20.88
2023-02-17T03:09:58.153Z,21.60
2023-02-17T03:12:27.201Z,23.92
2023-02-17T03:15:08.373Z,23.33
2023-02-17T03:17:35.380Z,21.77
2023-02-17T03:20:05.998Z,23.25
2023-02-17T03:22:37.285Z,24.00
2023-02-17T03:25:04.760Z,23.30
2023-02-17T03:27:31.800Z,23.55
2023-02-17T03:29:58.860Z,22.63
2023-02-17T03:32:26.064Z,24.27
2023-02-17T03:34:52.917Z,21.77
2023-02-17T03:37:19.793Z,25.17
2023-02-17T03:39:46.945Z,21.92
2023-02-17T03:42:13.799Z,22.35
2023-02-17T03:44:40.753Z,24.42
2023-02-17T03:47:07.829Z,24.00
2023-02-17T03:49:35.028Z,23.40
2023-02-17T03:52:02.265Z,22.88
2023-02-17T03:54:29.305Z,22.95
2023-02-17T03:56:56.486Z,25.00
2023-02-17T03:59:23.427Z,24.02
2023-02-17T04:01:50.523Z,24.00
2023-02-17T04:04:17.508Z,24.20
2023-02-17T04:06:44.605Z,24.83
2023-02-17T04:09:11.631Z,22.95
2023-02-17T04:11:38.729Z,23.30
2023-02-17T04:14:05.764Z,23.75
2023-02-17T04:16:32.810Z,24.08
2023-02-17T04:18:59.773Z,23.55
2023-02-17T04:21:27.055Z,23.73
2023-02-17T04:23:55.060Z,24.52
2023-02-17T04:26:21.959Z,24.20
2023-02-17T04:28:48.982Z,24.17
2023-02-17T04:31:16.154Z,26.23
2023-02-17T04:33:43.258Z,23.52
2023-02-17T04:36:11.388Z,24.88
2023-02-17T04:38:39.723Z,24.75
2023-02-17T04:41:07.168Z,23.23
2023-02-17T04:43:34.416Z,23.50
2023-02-17T04:46:01.411Z,22.83
2023-02-17T04:48:28.633Z,23.75
2023-02-17T04:50:55.699Z,23.33
2023-02-17T04:53:22.788Z,23.55
2023-02-17T04:55:51.597Z,22.63
2023-02-17T04:58:19.971Z,21.65
2023-02-17T05:00:49.170Z,23.35
2023-02-17T05:03:17.525Z,20.88
2023-02-17T05:05:44.748Z,22.20
2023-02-17T05:08:11.628Z,22.10
2023-02-17T05:10:38.614Z,20.10
2023-02-17T05:13:05.459Z,21.98
2023-02-17T05:15:34.779Z,22.90
2023-02-17T05:18:02.836Z,22.42
2023-02-17T05:20:29.745Z,20.08
2023-02-17T05:22:56.801Z,21.10
2023-02-17T05:25:23.591Z,21.40
2023-02-17T05:27:50.495Z,20.73
2023-02-17T05:30:17.520Z,22.38
2023-02-17T05:32:44.523Z,23.38
2023-02-17T05:35:11.930Z,22.45
2023-02-17T05:37:38.959Z,20.98
2023-02-17T05:40:07.095Z,22.52
2023-02-17T05:42:34.164Z,22.25
2023-02-17T05:45:01.444Z,22.15
2023-02-17T05:47:28.515Z,21.20
2023-02-17T05:49:55.472Z,21.77
2023-02-17T05:52:22.425Z,21.92
2023-02-17T05:54:49.421Z,23.08
2023-02-17T05:57:16.501Z,21.58
2023-02-17T05:59:43.468Z,20.80
2023-02-17T06:02:10.356Z,22.60
2023-02-17T06:04:37.509Z,23.50
2023-02-17T06:07:04.449Z,22.08
2023-02-17T06:09:31.530Z,22.27
2023-02-17T06:11:58.469Z,20.77
2023-02-17T06:14:25.352Z,21.23
2023-02-17T06:16:53.646Z,21.75
2023-02-17T06:19:20.557Z,19.85
2023-02-17T06:21:47.484Z,22.73
2023-02-17T06:24:14.438Z,21.63
2023-02-17T06:26:41.358Z,20.83
2023-02-17T06:29:08.294Z,20.50
2023-02-17T06:31:35.417Z,20.80
2023-02-17T06:34:03.823Z,19.75
2023-02-17T06:36:31.845Z,21.90
2023-02-17T06:38:58.744Z,21.35
2023-02-17T06:41:25.683Z,19.92
2023-02-17T06:43:52.620Z,20.10
2023-02-17T06:46:19.635Z,20.42
2023-02-17T06:48:46.700Z,20.75
2023-02-17T06:51:13.670Z,20.63
2023-02-17T06:53:40.590Z,21.52
2023-02-17T06:56:07.853Z,19.23
2023-02-17T06:58:37.514Z,20.30
2023-02-17T07:01:05.427Z,18.73
2023-02-17T07:03:32.713Z,19.50
2023-02-17T07:06:00.560Z,19.15
2023-02-17T07:08:27.613Z,19.25
2023-02-17T07:10:54.716Z,18.58
2023-02-17T07:13:21.612Z,18.23
2023-02-17T07:15:48.582Z,18.83
2023-02-17T07:18:15.464Z,17.38
2023-02-17T07:20:42.407Z,18.08
2023-02-17T07:23:09.743Z,19.75
2023-02-17T07:25:36.884Z,17.63
2023-02-17T07:28:03.888Z,18.48
2023-02-17T07:30:30.960Z,18.30
2023-02-17T07:32:57.933Z,17.75
2023-02-17T07:35:25.240Z,16.40
2023-02-17T07:37:52.147Z,16.50
2023-02-17T07:40:19.460Z,18.00
2023-02-17T07:42:46.343Z,15.93
2023-02-17T07:45:13.734Z,17.15
2023-02-17T07:47:40.683Z,16.80
2023-02-17T07:50:08.541Z,17.48
2023-02-17T07:52:35.609Z,16.75
2023-02-17T07:55:02.549Z,17.33
2023-02-17T07:57:30.335Z,16.83
2023-02-17T07:59:57.166Z,16.88
2023-02-17T08:02:24.059Z,15.98
2023-02-17T08:04:52.551Z,17.10
2023-02-17T08:07:19.814Z,15.82
2023-02-17T08:10:05.233Z,16.35
2023-02-17T08:12:50.727Z,15.65
2023-02-17T08:15:17.612Z,15.15
2023-02-17T08:17:44.713Z,15.15
2023-02-17T08:20:13.393Z,14.95
2023-02-17T08:22:40.671Z,14.35
2023-02-17T08:25:07.865Z,15.55
2023-02-17T08:27:34.785Z,15.30
2023-02-17T08:30:01.867Z,14.55
2023-02-17T08:32:28.795Z,14.68
2023-02-17T08:34:56.739Z,14.90
2023-02-17T08:37:23.903Z,14.10
2023-02-17T08:39:50.957Z,14.82
2023-02-17T08:42:18.060Z,14.82
2023-02-17T08:44:45.325Z,14.50
2023-02-17T08:47:12.181Z,14.48
2023-02-17T08:49:40.227Z,14.50
2023-02-17T08:52:07.424Z,14.80
2023-02-17T08:54:34.458Z,14.68
2023-02-17T08:57:01.392Z,15.50
2023-02-17T08:59:28.418Z,15.05
2023-02-17T09:01:55.777Z,15.18
2023-02-17T09:04:22.778Z,13.80
2023-02-17T09:06:53.371Z,14.70
2023-02-17T09:09:23.073Z,15.52
2023-02-17T09:11:50.220Z,15.27
2023-02-17T09:14:17.400Z,14.68
2023-02-17T09:16:44.396Z,14.10
2023-02-17T09:19:11.471Z,13.98
2023-02-17T09:21:38.503Z,13.38
2023-02-17T09:24:06.029Z,15.25
2023-02-17T09:26:34.968Z,14.38
2023-02-17T09:29:03.738Z,14.10
2023-02-17T09:31:32.008Z,15.00
2023-02-17T09:33:59.384Z,14.30
2023-02-17T09:36:34.148Z,14.13
2023-02-17T09:39:01.796Z,13.30
2023-02-17T09:41:47.939Z,14.35
2023-02-17T09:44:22.294Z,14.00
2023-02-17T09:47:05.816Z,15.88
2023-02-17T09:49:56.944Z,14.55
2023-02-17T09:52:44.965Z,13.15
2023-02-17T09:55:35.069Z,13.48
2023-02-17T09:58:10.621Z,13.48
2023-02-17T10:00:50.418Z,13.52
2023-02-17T10:03:48.494Z,13.10
2023-02-17T10:06:29.404Z,14.73
2023-02-17T10:09:24.340Z,14.75
2023-02-17T10:12:04.248Z,14.95
2023-02-17T10:14:45.382Z,13.55
2023-02-17T10:17:41.006Z,13.38
2023-02-17T10:20:28.927Z,15.82
2023-02-17T10:23:04.998Z,15.13
2023-02-17T10:26:42.578Z,13.68
2023-02-17T10:29:52.742Z,14.40
2023-02-17T10:32:30.352Z,16.17
2023-02-17T10:35:23.319Z,16.10
2023-02-17T10:38:03.834Z,15.00
2023-02-17T10:40:31.588Z,15.38
2023-02-17T10:43:07.282Z,15.82
2023-02-17T10:45:44.958Z,14.35
2023-02-17T10:48:32.563Z,16.65
2023-02-17T10:51:01.391Z,15.82
2023-02-17T10:53:39.451Z,15.88
2023-02-17T10:56:34.547Z,15.43
2023-02-17T10:59:06.361Z,16.23
2023-02-17T11:01:34.483Z,16.75
2023-02-17T11:04:08.202Z,16.30
2023-02-17T11:06:49.628Z,15.27
2023-02-17T11:09:31.995Z,14.70
2023-02-17T11:12:25.066Z,16.92
2023-02-17T11:14:55.489Z,16.15
2023-02-17T11:17:30.472Z,16.50
2023-02-17T11:20:06.156Z,16.33
2023-02-17T11:22:45.898Z,16.85
2023-02-17T11:25:32.189Z,15.10
2023-02-17T11:28:02.849Z,16.70
2023-02-17T11:30:32.950Z,16.23
2023-02-17T11:33:14.216Z,16.17
2023-02-17T11:35:45.999Z,14.88
2023-02-17T11:38:18.921Z,16.13
2023-02-17T11:41:02.339Z,15.40
2023-02-17T11:43:32.879Z,15.40
2023-02-17T11:46:16.929Z,16.13
2023-02-17T11:48:57.121Z,15.43
2023-02-17T11:51:48.893Z,14.02
2023-02-17T11:54:31.903Z,13.73
2023-02-17T11:57:34.998Z,13.80
2023-02-17T12:00:19.945Z,13.57
2023-02-17T12:03:36.442Z,13.65
2023-02-17T12:06:21.654Z,14.30
2023-02-17T12:09:08.092Z,12.73
2023-02-17T12:11:48.904Z,12.77
2023-02-17T12:14:43.318Z,13.25
2023-02-17T12:18:04.747Z,11.80
2023-02-17T12:20:45.714Z,12.07
2023-02-17T12:23:46.254Z,13.07
2023-02-17T12:26:38.374Z,11.15
2023-02-17T12:29:25.812Z,11.00
2023-02-17T12:32:12.607Z,10.70
2023-02-17T12:34:57.111Z,9.80
2023-02-17T12:37:34.632Z,9.25
2023-02-17T12:40:16.647Z,9.38
2023-02-17T12:43:01.578Z,9.07
2023-02-17T12:45:46.655Z,8.88
2023-02-17T12:48:24.726Z,9.13
2023-02-17T12:51:02.437Z,7.97
2023-02-17T12:53:51.690Z,9.32
2023-02-17T12:56:33.549Z,8.20
2023-02-17T12:59:17.225Z,7.90
2023-02-17T13:01:54.726Z,7.47
2023-02-17T13:04:25.172Z,7.43
2023-02-17T13:07:02.493Z,7.72
2023-02-17T13:09:41.091Z,8.05
2023-02-17T13:12:23.252Z,7.50
2023-02-17T13:14:59.252Z,7.43
2023-02-17T13:17:40.748Z,7.72
2023-02-17T13:20:10.605Z,7.30
2023-02-17T13:22:43.847Z,6.97
2023-02-17T13:25:37.608Z,6.88
2023-02-17T13:28:19.862Z,6.85
2023-02-17T13:30:48.698Z,6.53
2023-02-17T13:33:21.511Z,6.30
2023-02-17T13:35:49.065Z,6.82
2023-02-17T13:38:31.812Z,6.93
2023-02-17T13:41:06.350Z,6.57
2023-02-17T13:43:42.486Z,6.38
2023-02-17T13:46:26.985Z,6.05
2023-02-17T13:49:06.480Z,6.55
2023-02-17T13:51:34.219Z,5.40
2023-02-17T13:54:09.055Z,6.00
2023-02-17T13:56:36.150Z,5.30
2023-02-17T13:59:08.440Z,5.07
2023-02-17T14:01:39.564Z,5.03
2023-02-17T14:04:27.577Z,5.60
2023-02-17T14:06:59.339Z,4.53
2023-02-17T14:09:33.260Z,4.68
2023-02-17T14:12:03.460Z,4.43
2023-02-17T14:14:38.248Z,4.70
2023-02-17T14:17:32.642Z,4.50
2023-02-17T14:20:00.812Z,4.35
2023-02-17T14:22:35.227Z,4.53
2023-02-17T14:25:14.179Z,4.22
2023-02-17T14:27:47.527Z,4.80
2023-02-17T14:30:34.163Z,4.18
2023-02-17T14:33:07.517Z,4.32
2023-02-17T14:35:35.578Z,4.55
2023-02-17T14:38:20.960Z,4.82
2023-02-17T14:40:48.722Z,4.82
2023-02-17T14:43:15.982Z,5.28
2023-02-17T14:45:43.031Z,5.20
2023-02-17T14:48:10.011Z,5.28
2023-02-17T14:50:42.251Z,5.47
2023-02-17T14:53:17.192Z,4.80
2023-02-17T14:55:54.118Z,5.78
2023-02-17T14:58:23.841Z,5.65
2023-02-17T15:00:51.626Z,6.07
2023-02-17T15:03:18.799Z,5.70
2023-02-17T15:05:46.254Z,5.93
2023-02-17T15:08:17.695Z,5.93
2023-02-17T15:10:45.447Z,6.22
2023-02-17T15:13:21.658Z,6.20
2023-02-17T15:15:49.585Z,6.38
2023-02-17T15:18:19.413Z,6.60
2023-02-17T15:20:50.220Z,6.75
2023-02-17T15:23:22.873Z,6.85
2023-02-17T15:25:50.127Z,6.80
2023-02-17T15:28:20.069Z,7.03
2023-02-17T15:30:52.226Z,7.55
2023-02-17T15:33:21.778Z,7.18
2023-02-17T15:35:53.502Z,7.47
2023-02-17T15:38:20.927Z,7.28
2023-02-17T15:40:48.020Z,7.78
2023-02-17T15:43:21.424Z,7.50
2023-02-17T15:45:48.880Z,7.50
2023-02-17T15:48:27.310Z,8.13
2023-02-17T15:50:54.466Z,7.93
2023-02-17T15:53:21.809Z,7.47
2023-02-17T15:55:49.119Z,8.40
2023-02-17T15:58:19.549Z,7.88
2023-02-17T16:00:47.047Z,7.93
2023-02-17T16:03:15.016Z,8.80
2023-02-17T16:05:43.418Z,8.35
2023-02-17T16:08:10.395Z,8.95
2023-02-17T16:10:39.473Z,9.70
2023-02-17T16:13:06.651Z,8.40
2023-02-17T16:15:34.000Z,9.57
2023-02-17T16:18:00.950Z,9.10
2023-02-17T16:20:34.732Z,8.40
2023-02-17T16:23:02.678Z,8.75
2023-02-17T16:25:30.207Z,8.88
2023-02-17T16:27:57.361Z,9.35
2023-02-17T16:30:33.234Z,9.15
2023-02-17T16:33:00.828Z,9.48
2023-02-17T16:35:31.497Z,8.90
2023-02-17T16:38:03.906Z,9.25
2023-02-17T16:40:35.371Z,8.88
2023-02-17T16:43:03.698Z,9.15
2023-02-17T16:45:32.788Z,7.93
2023-02-17T16:48:01.575Z,8.13
2023-02-17T16:50:32.787Z,7.93
2023-02-17T16:53:04.086Z,7.38
2023-02-17T16:55:34.704Z,6.90
2023-02-17T16:58:02.967Z,6.45
2023-02-17T17:00:33.064Z,6.90
2023-02-17T17:03:00.095Z,5.82
2023-02-17T17:05:29.577Z,5.47
2023-02-17T17:07:57.076Z,5.18
2023-02-17T17:10:31.031Z,5.22
2023-02-17T17:12:58.671Z,5.22
2023-02-17T17:15:25.732Z,5.07
2023-02-17T17:18:00.457Z,4.47
2023-02-17T17:20:34.138Z,4.72
2023-02-17T17:23:14.810Z,4.05
2023-02-17T17:25:46.360Z,4.18
2023-02-17T17:28:18.810Z,4.20
2023-02-17T17:30:47.850Z,4.35
2023-02-17T17:33:16.182Z,4.50
2023-02-17T17:35:43.525Z,4.40
2023-02-17T17:38:15.498Z,3.97
2023-02-17T17:40:53.000Z,4.07
2023-02-17T17:43:22.002Z,4.35
2023-02-17T17:45:50.321Z,4.00
2023-02-17T17:48:18.680Z,4.50
2023-02-17T17:50:46.143Z,3.85
2023-02-17T17:53:13.326Z,3.55
2023-02-17T17:55:40.340Z,3.88
2023-02-17T17:58:07.474Z,3.85
2023-02-17T18:00:34.364Z,3.53
2023-02-17T18:03:01.368Z,3.45
2023-02-17T18:05:28.393Z,3.55
2023-02-17T18:07:56.300Z,4.07
2023-02-17T18:10:23.366Z,3.67
2023-02-17T18:12:50.542Z,3.50
2023-02-17T18:15:18.649Z,3.45
2023-02-17T18:17:47.302Z,3.60
2023-02-17T18:20:14.731Z,3.28
2023-02-17T18:22:42.005Z,2.70
2023-02-17T18:25:09.990Z,2.50
2023-02-17T18:27:42.823Z,2.42
2023-02-17T18:30:18.656Z,2.10
2023-02-17T18:32:46.237Z,2.13
2023-02-17T18:35:14.009Z,2.00
2023-02-17T18:37:41.336Z,2.17
2023-02-17T18:40:14.799Z,1.88
2023-02-17T18:42:45.420Z,2.20
2023-02-17T18:45:13.734Z,2.05
2023-02-17T18:47:40.775Z,2.38
2023-02-17T18:50:10.261Z,1.98
2023-02-17T18:52:39.339Z,2.50
2023-02-17T18:55:07.559Z,2.90
2023-02-17T18:57:34.719Z,2.47
2023-02-17T19:00:02.479Z,2.47
2023-02-17T19:02:29.528Z,2.20
2023-02-17T19:04:56.854Z,2.10
2023-02-17T19:07:23.823Z,2.30
2023-02-17T19:09:54.510Z,1.80
2023-02-17T19:12:21.652Z,2.42
2023-02-17T19:14:53.265Z,2.55
2023-02-17T19:17:20.420Z,1.90
2023-02-17T19:19:47.667Z,1.45
2023-02-17T19:22:14.774Z,1.40
2023-02-17T19:24:42.672Z,1.30
2023-02-17T19:27:10.491Z,1.38
2023-02-17T19:29:37.612Z,1.17
2023-02-17T19:32:05.473Z,1.08
2023-02-17T19:34:32.651Z,1.60
2023-02-17T19:36:59.755Z,2.72
2023-02-17T19:39:26.689Z,1.95
2023-02-17T19:41:53.785Z,1.70
2023-02-17T19:44:20.753Z,1.63
2023-02-17T19:46:47.803Z,2.00
2023-02-17T19:49:15.048Z,1.50
2023-02-17T19:51:42.311Z,1.42
2023-02-17T19:54:09.362Z,1.70
2023-02-17T19:56:39.080Z,1.27
2023-02-17T19:59:06.207Z,1.60
2023-02-17T20:01:34.534Z,1.98
2023-02-17T20:04:04.940Z,0.88
2023-02-17T20:06:41.814Z,1.67
2023-02-17T20:09:14.858Z,1.50
2023-02-17T20:11:43.612Z,1.92
2023-02-17T20:14:11.180Z,1.98
2023-02-17T20:16:39.064Z,1.67
2023-02-17T20:19:07.430Z,1.35
2023-02-17T20:21:38.405Z,1.98
2023-02-17T20:24:05.808Z,1.80
2023-02-17T20:26:39.165Z,2.88
2023-02-17T20:29:06.329Z,1.83
2023-02-17T20:31:36.065Z,1.45
2023-02-17T20:34:05.236Z,1.92
2023-02-17T20:36:32.651Z,1.58
2023-02-17T20:39:00.423Z,1.25
2023-02-17T20:41:27.521Z,1.95
2023-02-17T20:43:54.808Z,1.60
2023-02-17T20:46:27.453Z,1.73
2023-02-17T20:48:55.502Z,2.70
2023-02-17T20:51:23.480Z,1.88
2023-02-17T20:53:51.106Z,2.53
2023-02-17T20:56:22.304Z,2.17
2023-02-17T20:58:50.771Z,2.55
2023-02-17T21:01:19.876Z,2.30
2023-02-17T21:03:48.161Z,1.83
2023-02-17T21:06:25.462Z,2.17
2023-02-17T21:09:07.097Z,2.25
2023-02-17T21:11:34.610Z,2.03
2023-02-17T21:14:01.708Z,2.78
2023-02-17T21:16:31.167Z,2.25
2023-02-17T21:19:00.133Z,2.20
2023-02-17T21:21:28.314Z,1.77
2023-02-17T21:23:56.860Z,2.03
2023-02-17T21:26:42.532Z,3.17
2023-02-17T21:29:09.467Z,1.95
2023-02-17T21:31:36.937Z,1.70
2023-02-17T21:34:04.483Z,2.13
2023-02-17T21:36:31.817Z,2.10
2023-02-17T21:38:59.204Z,2.10
2023-02-17T21:41:28.888Z,2.30
2023-02-17T21:44:14.668Z,2.40
2023-02-17T21:46:43.257Z,1.95
2023-02-17T21:49:11.550Z,1.80
2023-02-17T21:51:40.392Z,2.22
2023-02-17T21:54:09.619Z,2.20
2023-02-17T21:56:37.344Z,2.38
2023-02-17T21:59:05.382Z,2.33
2023-02-17T22:01:32.520Z,1.95
2023-02-17T22:03:59.562Z,3.13
2023-02-17T22:06:39.186Z,2.13
2023-02-17T22:09:08.520Z,2.20
2023-02-17T22:11:41.242Z,2.10
2023-02-17T22:14:20.157Z,2.35
2023-02-17T22:16:48.731Z,2.28
2023-02-17T22:19:23.095Z,1.77
2023-02-17T22:21:51.354Z,2.28
2023-02-17T22:24:20.799Z,2.22
2023-02-17T22:26:49.365Z,1.80
2023-02-17T22:29:16.221Z,2.22
2023-02-17T22:31:43.360Z,1.75
2023-02-17T22:34:36.489Z,2.78
2023-02-17T22:37:03.740Z,2.25
2023-02-17T22:39:30.685Z,2.03
2023-02-17T22:41:57.666Z,2.22
2023-02-17T22:44:24.492Z,1.88
2023-02-17T22:46:51.613Z,2.33
2023-02-17T22:49:18.613Z,1.67
2023-02-17T22:51:45.524Z,3.58
2023-02-17T22:54:12.503Z,2.22
2023-02-17T22:56:39.458Z,1.83
2023-02-17T22:59:06.554Z,2.08
2023-02-17T23:01:36.271Z,2.20
2023-02-17T23:04:04.590Z,1.73
2023-02-17T23:06:35.903Z,2.25
2023-02-17T23:09:05.168Z,2.05
2023-02-17T23:11:54.542Z,3.13
2023-02-17T23:14:30.499Z,2.42
2023-02-17T23:17:05.013Z,2.55
2023-02-17T23:19:32.955Z,2.20
2023-02-17T23:22:05.522Z,2.20
2023-02-17T23:24:32.974Z,2.45
2023-02-17T23:27:01.835Z,2.42
2023-02-17T23:29:30.605Z,2.25
2023-02-17T23:31:58.263Z,2.67
2023-02-17T23:34:25.240Z,2.80
2023-02-17T23:36:53.244Z,2.75
2023-02-17T23:39:20.312Z,2.55
2023-02-17T23:41:47.140Z,2.38
2023-02-17T23:44:15.901Z,2.88
2023-02-17T23:46:44.964Z,2.75
2023-02-17T23:49:17.125Z,2.10
2023-02-17T23:51:46.087Z,2.50
2023-02-17T23:54:13.240Z,2.72
2023-02-17T23:56:40.354Z,2.60
2023-02-17T23:59:07.462Z,3.88
